Time;durP1;ratioP1;P1;durP2;ratioP2;P2;SDS_P1;SDS_P2;PMS_P1;PMS_P2;Temp;Humidity;BMP_temperature;BMP_pressure;BME280_temperature;BME280_humidity;BME280_pressure;Samples;Min_cycle;Max_cycle;Signal;HPM_P1;HPM_P2
2023/08/27 00:07:23;;;;;;;18.00;15.88;;;20.20;99.90;;;;;;4545626;30;20795;-82
2023/08/27 00:37:57;;;;;;;16.87;15.10;;;20.00;99.90;;;;;;4522467;30;20216;-84
2023/08/27 01:18:34;;;;;;;17.07;15.27;;;19.70;99.90;;;;;;4941752;28;20190;-80
2023/08/27 01:48:30;;;;;;;13.30;12.00;;;19.60;99.90;;;;;;4849257;28;20655;-86
2023/08/27 02:13:38;;;;;;;11.75;10.57;;;20.00;99.90;;;;;;4833406;28;20593;-85
2023/08/27 02:34:16;;;;;;;11.57;10.37;;;19.90;99.90;;;;;;4847882;28;20371;-85
2023/08/27 02:54:40;;;;;;;14.17;11.93;;;19.80;99.90;;;;;;4814976;28;20233;-83
2023/08/27 03:19:51;;;;;;;12.13;10.93;;;20.00;99.90;;;;;;4803264;29;20582;-81
2023/08/27 03:40:36;;;;;;;16.07;13.50;;;19.50;99.90;;;;;;4596962;30;20747;-81
2023/08/27 04:05:13;;;;;;;14.20;12.70;;;19.60;99.90;;;;;;4555973;30;20645;-82
2023/08/27 04:26:14;;;;;;;15.60;14.00;;;19.50;99.90;;;;;;4786020;29;20215;-81
2023/08/27 04:56:39;;;;;;;14.67;13.27;;;19.80;99.90;;;;;;4652669;30;20228;-82
2023/08/27 05:00:59;;;;;;;14.27;12.87;;;19.80;99.90;;;;;;4586421;30;20670;-81
2023/08/27 05:21:57;;;;;;;15.27;13.53;;;19.80;99.90;;;;;;4831361;28;20218;-83
2023/08/27 05:57:23;;;;;;;16.45;14.23;;;20.30;99.90;;;;;;4867162;28;20200;-82
2023/08/27 06:27:14;;;;;;;14.48;12.98;;;21.40;99.90;;;;;;4783486;29;20307;-85
2023/08/27 06:47:51;;;;;;;12.25;10.68;;;22.20;99.90;;;;;;4837116;28;20545;-87
2023/08/27 07:08:28;;;;;;;9.50;8.43;;;22.90;99.90;;;;;;4899041;28;20211;-84
2023/08/27 07:33:46;;;;;;;7.70;7.00;;;24.10;99.50;;;;;;4876759;28;20195;-87
2023/08/27 07:58:58;;;;;;;9.80;7.05;;;24.80;99.90;;;;;;4767486;29;20380;-86
2023/08/27 08:29:09;;;;;;;7.75;6.93;;;25.40;98.70;;;;;;4616690;30;20340;-84
2023/08/27 08:54:55;;;;;;;7.63;6.57;;;26.00;95.30;;;;;;4673664;30;20826;-87
2023/08/27 09:25:25;;;;;;;6.68;6.03;;;26.30;91.40;;;;;;4620369;30;20240;-82
2023/08/27 09:50:44;;;;;;;7.20;6.22;;;28.00;87.30;;;;;;4810512;29;20210;-84
2023/08/27 10:10:37;;;;;;;7.15;5.65;;;27.30;88.10;;;;;;4699749;29;20467;-87
2023/08/27 10:36:15;;;;;;;5.95;5.45;;;27.20;88.90;;;;;;4695408;29;21410;-84
2023/08/27 10:56:35;;;;;;;6.80;6.20;;;27.90;85.20;;;;;;4755797;29;20970;-85
2023/08/27 11:22:05;;;;;;;7.55;6.53;;;28.70;84.80;;;;;;4711784;29;20492;-82
2023/08/27 11:51:59;;;;;;;7.78;7.07;;;27.60;87.70;;;;;;4694648;29;20428;-82
2023/08/27 12:17:34;;;;;;;9.10;8.20;;;28.10;87.80;;;;;;4651280;29;20586;-84
2023/08/27 12:27:45;;;;;;;8.70;7.90;;;28.30;88.50;;;;;;5968117;23;21348;-83
2023/08/27 12:52:59;;;;;;;10.60;9.60;;;27.90;88.90;;;;;;4709228;29;20378;-82
2023/08/27 13:17:54;;;;;;;14.43;13.02;;;28.50;86.20;;;;;;4693858;29;20552;-83
2023/08/27 13:53:56;;;;;;;12.88;11.65;;;28.50;83.10;;;;;;4809973;28;20319;-81
2023/08/27 14:19:24;;;;;;;12.20;11.00;;;28.90;77.50;;;;;;4665526;29;20868;-84
2023/08/27 14:39:45;;;;;;;11.30;10.13;;;31.00;68.20;;;;;;4792499;29;20222;-82
2023/08/27 15:05:04;;;;;;;12.93;11.73;;;31.80;65.80;;;;;;4798463;29;20328;-82
2023/08/27 15:50:28;;;;;;;7.28;6.57;;;27.50;85.00;;;;;;4584419;30;20307;-83
2023/08/27 16:41:16;;;;;;;4.32;3.92;;;26.10;90.60;;;;;;4570744;30;20260;-86
2023/08/27 17:06:41;;;;;;;4.20;3.88;;;25.30;93.80;;;;;;4740979;29;20606;-84
2023/08/27 17:46:46;;;;;;;3.90;3.60;;;24.50;99.90;;;;;;4669948;29;21272;-84
2023/08/27 18:12:25;;;;;;;7.10;4.60;;;23.10;99.90;;;;;;4609892;30;20719;-85
2023/08/27 18:48:08;;;;;;;6.85;6.20;;;22.10;99.90;;;;;;4740046;29;20676;-86
2023/08/27 19:18:41;;;;;;;6.05;5.28;;;21.70;99.90;;;;;;4741416;29;20253;-85
2023/08/27 19:43:45;;;;;;;6.65;5.97;;;21.50;99.90;;;;;;4686578;29;20926;-85
2023/08/27 20:03:44;;;;;;;8.15;6.47;;;21.30;99.90;;;;;;4605536;30;20464;-85
2023/08/27 20:34:03;;;;;;;7.97;7.28;;;21.30;99.90;;;;;;4602145;30;20659;-85
2023/08/27 21:14:55;;;;;;;9.18;7.80;;;20.80;99.90;;;;;;4573241;30;20710;-86
2023/08/27 21:40:06;;;;;;;10.88;9.77;;;21.30;99.90;;;;;;4526195;31;20456;-85
2023/08/27 21:55:44;;;;;;;12.27;10.90;;;22.10;99.90;;;;;;4546496;30;20293;-86
2023/08/27 22:21:09;;;;;;;13.95;12.55;;;22.20;99.90;;;;;;4664538;30;20387;-84
2023/08/27 22:46:09;;;;;;;14.52;13.13;;;22.00;99.90;;;;;;4608573;30;20249;-87
2023/08/27 23:22:07;;;;;;;16.25;14.55;;;21.80;99.90;;;;;;4606802;30;20685;-83
